Time;durP1;ratioP1;P1;durP2;ratioP2;P2;SDS_P1;SDS_P2;PMS_P1;PMS_P2;Temp;Humidity;BMP_temperature;BMP_pressure;BME280_temperature;BME280_humidity;BME280_pressure;Samples;Min_cycle;Max_cycle;Signal;HPM_P1;HPM_P2
2023/05/03 00:00:22;;;;;;;11.40;9.98;;;9.80;99.90;;;;;;5051847;28;20025;-54
2023/05/03 00:02:48;;;;;;;11.15;9.98;;;9.70;99.90;;;;;;5051894;28;20094;-58
2023/05/03 00:05:13;;;;;;;13.88;10.15;;;9.70;99.90;;;;;;5052138;28;20036;-57
2023/05/03 00:07:43;;;;;;;13.07;10.80;;;9.70;99.90;;;;;;5051814;28;20025;-58
2023/05/03 00:10:18;;;;;;;10.80;9.30;;;9.70;99.90;;;;;;5051610;28;20018;-57
2023/05/03 00:12:50;;;;;;;10.95;9.85;;;9.70;99.90;;;;;;5051697;28;20487;-56
2023/05/03 00:15:16;;;;;;;24.35;11.30;;;9.70;99.90;;;;;;5051370;28;20388;-58
2023/05/03 00:17:41;;;;;;;12.27;10.80;;;9.70;99.90;;;;;;5051710;28;20096;-57
2023/05/03 00:20:08;;;;;;;12.90;9.77;;;9.70;99.90;;;;;;5051993;28;20017;-54
2023/05/03 00:22:35;;;;;;;13.80;10.40;;;9.80;99.90;;;;;;5051491;28;20056;-57
2023/05/03 00:25:01;;;;;;;11.07;9.93;;;9.80;99.90;;;;;;5051917;28;20021;-57
2023/05/03 00:27:27;;;;;;;12.55;9.77;;;9.80;99.90;;;;;;5051495;28;20021;-57
2023/05/03 00:29:52;;;;;;;12.52;10.85;;;9.80;99.90;;;;;;5050524;28;20475;-57
2023/05/03 00:32:20;;;;;;;12.23;10.65;;;9.80;99.90;;;;;;5050228;28;20057;-57
2023/05/03 00:34:45;;;;;;;11.43;10.30;;;9.80;99.90;;;;;;5050340;28;20028;-58
2023/05/03 00:37:11;;;;;;;13.48;9.70;;;9.80;99.90;;;;;;5050350;28;20021;-57
2023/05/03 00:39:37;;;;;;;10.80;9.75;;;9.90;99.90;;;;;;5050565;28;20033;-52
2023/05/03 00:42:03;;;;;;;14.88;10.75;;;9.90;99.90;;;;;;5051048;28;20017;-56
2023/05/03 00:44:29;;;;;;;11.00;9.90;;;9.90;99.90;;;;;;5048671;28;20526;-57
2023/05/03 00:46:56;;;;;;;11.20;10.10;;;9.80;99.90;;;;;;5049778;28;20365;-55
2023/05/03 00:49:24;;;;;;;13.43;10.45;;;9.80;99.90;;;;;;5050282;28;20075;-55
2023/05/03 00:51:52;;;;;;;12.27;10.63;;;9.70;99.90;;;;;;5050908;28;20086;-56
2023/05/03 00:54:18;;;;;;;11.60;10.23;;;9.70;99.90;;;;;;5050175;28;20383;-54
2023/05/03 00:56:44;;;;;;;12.57;10.88;;;9.60;99.90;;;;;;5051303;28;20017;-55
2023/05/03 00:59:11;;;;;;;14.00;11.10;;;9.70;99.90;;;;;;5051277;28;20410;-56
2023/05/03 01:01:36;;;;;;;17.38;12.57;;;9.60;99.90;;;;;;5051081;28;20420;-56
2023/05/03 01:04:03;;;;;;;13.95;12.52;;;9.60;99.90;;;;;;5051333;28;20030;-54
2023/05/03 01:06:38;;;;;;;13.68;12.25;;;9.60;99.90;;;;;;5051211;28;20114;-57
2023/05/03 01:09:20;;;;;;;14.32;11.52;;;9.60;99.90;;;;;;5051375;28;20029;-57
2023/05/03 01:12:11;;;;;;;13.80;11.55;;;9.60;99.90;;;;;;5050951;28;20013;-56
2023/05/03 01:14:54;;;;;;;11.75;10.52;;;9.60;99.90;;;;;;5050656;28;20492;-58
2023/05/03 01:17:26;;;;;;;13.73;11.95;;;9.50;99.90;;;;;;5049621;28;20032;-57
2023/05/03 01:20:07;;;;;;;13.93;11.93;;;9.60;99.90;;;;;;5050929;28;20067;-58
2023/05/03 01:22:51;;;;;;;12.80;11.50;;;9.60;99.90;;;;;;5052724;28;20456;-58
2023/05/03 01:25:16;;;;;;;14.20;12.70;;;9.50;99.90;;;;;;5054857;28;20032;-54
2023/05/03 01:27:42;;;;;;;13.82;12.27;;;9.60;99.90;;;;;;5054723;28;20103;-58
2023/05/03 01:30:10;;;;;;;14.27;9.93;;;9.60;99.90;;;;;;5054448;28;20021;-57
2023/05/03 01:32:53;;;;;;;13.75;12.13;;;9.70;99.90;;;;;;5054810;28;20060;-57
2023/05/03 01:35:25;;;;;;;14.35;11.68;;;9.80;99.90;;;;;;5054973;28;20031;-57
2023/05/03 01:37:51;;;;;;;14.35;11.60;;;9.80;99.90;;;;;;5054726;28;20023;-56
2023/05/03 01:40:19;;;;;;;12.07;10.88;;;9.70;99.90;;;;;;5054999;28;20043;-54
2023/05/03 01:42:45;;;;;;;16.40;11.27;;;9.70;99.90;;;;;;5054656;28;20017;-58
2023/05/03 01:45:11;;;;;;;14.05;12.30;;;9.70;99.90;;;;;;5053504;28;20052;-57
2023/05/03 01:47:37;;;;;;;18.75;11.93;;;9.70;99.90;;;;;;5053128;28;20499;-55
2023/05/03 01:50:03;;;;;;;17.83;12.30;;;9.70;99.90;;;;;;5053347;28;20060;-54
2023/05/03 01:52:29;;;;;;;11.20;10.10;;;9.70;99.90;;;;;;5054321;28;20075;-56
2023/05/03 01:54:55;;;;;;;11.93;10.73;;;9.70;99.90;;;;;;5054020;28;20067;-58
2023/05/03 01:57:21;;;;;;;10.50;9.52;;;9.80;99.90;;;;;;5054044;28;20385;-57
2023/05/03 01:59:47;;;;;;;13.50;11.32;;;9.80;99.90;;;;;;5054426;28;20021;-56
2023/05/03 02:02:13;;;;;;;15.63;10.52;;;9.80;99.90;;;;;;5054155;28;20091;-57
2023/05/03 02:04:38;;;;;;;13.90;12.40;;;9.70;99.90;;;;;;5054261;28;20029;-55
2023/05/03 02:07:04;;;;;;;14.80;11.95;;;9.70;99.90;;;;;;5054173;28;20075;-56
2023/05/03 02:09:30;;;;;;;14.02;12.38;;;9.70;99.90;;;;;;5054227;28;20117;-57
2023/05/03 02:11:55;;;;;;;15.15;11.90;;;9.70;99.90;;;;;;5054146;28;20040;-57
2023/05/03 02:14:21;;;;;;;13.10;11.45;;;9.70;99.90;;;;;;5054040;28;20017;-56
2023/05/03 02:16:47;;;;;;;15.00;12.98;;;9.70;99.90;;;;;;5055407;28;20113;-57
2023/05/03 02:19:14;;;;;;;12.32;11.02;;;9.70;99.90;;;;;;5073939;28;20098;-53
2023/05/03 02:21:39;;;;;;;12.13;10.32;;;9.70;99.90;;;;;;5073944;28;20647;-55
2023/05/03 02:24:05;;;;;;;12.57;11.27;;;9.70;99.90;;;;;;5074188;28;20052;-56
2023/05/03 02:26:31;;;;;;;13.65;11.80;;;9.80;99.90;;;;;;5073763;28;20021;-55
2023/05/03 02:28:57;;;;;;;15.70;13.45;;;9.70;99.90;;;;;;5072356;28;20109;-56
2023/05/03 02:31:23;;;;;;;13.38;11.30;;;9.70;99.90;;;;;;5073650;28;20041;-56
2023/05/03 02:33:49;;;;;;;17.45;12.85;;;9.70;99.90;;;;;;5073335;28;20078;-55
2023/05/03 02:36:14;;;;;;;15.07;12.57;;;9.70;99.90;;;;;;5072523;28;20056;-56
2023/05/03 02:38:40;;;;;;;19.98;14.00;;;9.70;99.90;;;;;;5073372;28;20122;-57
2023/05/03 02:41:06;;;;;;;14.32;12.85;;;9.70;99.90;;;;;;5073432;28;20482;-55
2023/05/03 02:43:40;;;;;;;14.63;11.48;;;9.70;99.90;;;;;;5073353;28;20044;-54
2023/05/03 02:46:06;;;;;;;14.32;12.18;;;9.70;99.90;;;;;;5073433;28;20363;-56
2023/05/03 02:48:31;;;;;;;13.73;12.32;;;9.70;99.90;;;;;;5073359;28;20033;-57
2023/05/03 02:50:57;;;;;;;17.80;12.63;;;9.70;99.90;;;;;;5073539;28;20039;-57
2023/05/03 02:53:23;;;;;;;13.18;11.88;;;9.70;99.90;;;;;;5073300;28;20028;-58
2023/05/03 02:55:49;;;;;;;14.40;12.90;;;9.60;99.90;;;;;;5073214;28;20099;-57
2023/05/03 02:58:15;;;;;;;15.85;12.30;;;9.60;99.90;;;;;;5073421;28;20047;-57
2023/05/03 03:00:41;;;;;;;14.95;13.35;;;9.60;99.90;;;;;;5073193;28;20071;-56
2023/05/03 03:03:06;;;;;;;15.63;13.48;;;9.60;99.90;;;;;;5073088;28;20045;-55
2023/05/03 03:05:32;;;;;;;16.13;13.10;;;9.60;99.90;;;;;;5073075;28;20455;-58
2023/05/03 03:07:57;;;;;;;14.50;13.10;;;9.60;99.90;;;;;;5072932;28;20430;-58
2023/05/03 03:10:23;;;;;;;13.73;11.38;;;9.60;99.90;;;;;;5072900;28;20029;-53
2023/05/03 03:12:49;;;;;;;17.58;12.52;;;9.60;99.90;;;;;;5072912;28;20525;-56
2023/05/03 03:15:15;;;;;;;14.50;12.80;;;9.50;99.90;;;;;;5073032;28;20024;-56
2023/05/03 03:17:40;;;;;;;14.38;12.88;;;9.50;99.90;;;;;;5071499;28;20024;-56
2023/05/03 03:20:16;;;;;;;23.83;14.88;;;9.50;99.90;;;;;;5072984;28;20031;-57
2023/05/03 03:22:42;;;;;;;16.90;12.10;;;9.50;99.90;;;;;;5072578;28;20045;-55
2023/05/03 03:25:08;;;;;;;15.35;13.57;;;9.50;99.90;;;;;;5072554;28;20056;-57
2023/05/03 03:27:34;;;;;;;16.20;14.52;;;9.50;99.90;;;;;;5072647;28;20361;-55
2023/05/03 03:30:00;;;;;;;18.25;15.07;;;9.50;99.90;;;;;;5072446;28;20086;-57
2023/05/03 03:32:26;;;;;;;17.15;14.15;;;9.50;99.90;;;;;;5072460;28;20648;-57
2023/05/03 03:34:51;;;;;;;16.30;14.23;;;9.50;99.90;;;;;;5072343;28;20052;-57
2023/05/03 03:37:20;;;;;;;19.63;16.42;;;9.50;99.90;;;;;;5072353;28;20059;-56
2023/05/03 03:39:46;;;;;;;20.58;14.68;;;9.50;99.90;;;;;;5072348;28;20059;-57
2023/05/03 03:42:14;;;;;;;16.38;14.13;;;9.50;99.90;;;;;;5072241;28;20049;-57
2023/05/03 03:44:40;;;;;;;16.17;13.77;;;9.50;99.90;;;;;;5070153;28;20039;-55
2023/05/03 03:47:06;;;;;;;19.92;15.05;;;9.60;99.90;;;;;;5072117;28;20124;-57
2023/05/03 03:49:31;;;;;;;16.88;15.07;;;9.60;99.90;;;;;;5070843;28;20083;-57
2023/05/03 03:51:57;;;;;;;14.68;12.93;;;9.60;99.90;;;;;;5071807;28;20028;-56
2023/05/03 03:54:23;;;;;;;20.50;14.30;;;9.60;99.90;;;;;;5072211;28;20095;-58
2023/05/03 03:56:49;;;;;;;16.63;14.77;;;9.70;99.90;;;;;;5072211;28;20020;-55
2023/05/03 03:59:15;;;;;;;19.92;14.07;;;9.70;99.90;;;;;;5072169;28;20016;-56
2023/05/03 04:01:41;;;;;;;15.13;13.13;;;9.70;99.90;;;;;;5071805;28;20391;-56
2023/05/03 04:04:06;;;;;;;16.65;14.52;;;9.70;99.90;;;;;;5071890;28;20063;-58
2023/05/03 04:06:32;;;;;;;20.33;15.35;;;9.70;99.90;;;;;;5071902;28;20056;-55
2023/05/03 04:08:58;;;;;;;18.42;14.93;;;9.70;99.90;;;;;;5071755;28;20727;-55
2023/05/03 04:11:23;;;;;;;20.23;14.23;;;9.70;99.90;;;;;;5071743;28;20119;-55
2023/05/03 04:13:49;;;;;;;19.10;14.90;;;9.70;99.90;;;;;;5071629;28;20104;-55
2023/05/03 04:16:15;;;;;;;16.88;14.10;;;9.70;99.90;;;;;;5071598;28;20024;-56
2023/05/03 04:18:41;;;;;;;15.60;13.95;;;9.70;99.90;;;;;;5071439;28;20052;-57
2023/05/03 04:21:07;;;;;;;16.67;13.60;;;9.70;99.90;;;;;;5071438;28;20016;-56
2023/05/03 04:23:33;;;;;;;16.75;14.68;;;9.80;99.90;;;;;;5071497;28;20155;-55
2023/05/03 04:26:11;;;;;;;18.63;15.23;;;9.70;99.90;;;;;;5071685;28;20017;-56
2023/05/03 04:28:38;;;;;;;16.83;14.45;;;9.80;99.90;;;;;;5071263;28;20035;-58
2023/05/03 04:31:04;;;;;;;13.95;12.38;;;9.80;99.90;;;;;;5071621;28;20519;-56
2023/05/03 04:33:30;;;;;;;21.35;14.73;;;9.80;99.90;;;;;;5071323;28;20029;-56
2023/05/03 04:35:56;;;;;;;17.55;15.65;;;9.80;99.90;;;;;;5071373;28;20073;-57
2023/05/03 04:38:22;;;;;;;17.42;14.98;;;9.80;99.90;;;;;;5071285;28;20102;-57
2023/05/03 04:40:48;;;;;;;19.58;15.50;;;9.80;99.90;;;;;;5070928;28;20024;-56
2023/05/03 04:43:14;;;;;;;16.67;14.95;;;9.90;99.90;;;;;;5071389;28;20060;-57
2023/05/03 04:45:40;;;;;;;20.25;15.48;;;9.90;99.90;;;;;;5070221;28;20114;-57
2023/05/03 04:48:21;;;;;;;21.95;14.40;;;9.90;99.90;;;;;;5071264;28;20040;-55
2023/05/03 04:50:46;;;;;;;18.20;14.65;;;9.90;99.90;;;;;;5070852;28;20025;-56
2023/05/03 04:53:12;;;;;;;18.60;14.10;;;9.90;99.90;;;;;;5069973;28;20073;-57
2023/05/03 04:55:38;;;;;;;18.17;14.32;;;9.90;99.90;;;;;;5069935;28;20098;-57
2023/05/03 04:58:03;;;;;;;19.35;14.43;;;9.90;99.90;;;;;;5074380;28;20075;-57
2023/05/03 05:00:29;;;;;;;16.48;13.77;;;10.00;99.90;;;;;;5075338;28;20376;-56
2023/05/03 05:02:57;;;;;;;16.05;13.40;;;10.10;99.90;;;;;;5074858;28;20052;-55
2023/05/03 05:05:23;;;;;;;16.83;13.73;;;10.10;99.90;;;;;;5074771;28;20023;-58
2023/05/03 05:07:48;;;;;;;15.82;13.45;;;10.10;99.90;;;;;;5075346;28;20024;-57
2023/05/03 05:10:14;;;;;;;16.05;13.38;;;10.10;99.90;;;;;;5075203;28;20024;-57
2023/05/03 05:12:40;;;;;;;13.18;11.07;;;10.00;99.90;;;;;;5075354;28;20025;-56
2023/05/03 05:15:06;;;;;;;14.20;11.55;;;10.10;99.90;;;;;;5075168;28;20433;-56
2023/05/03 05:17:32;;;;;;;19.15;12.60;;;10.10;99.90;;;;;;5074884;28;20063;-57
2023/05/03 05:19:57;;;;;;;15.82;12.32;;;10.10;99.90;;;;;;5074937;28;20044;-55
2023/05/03 05:22:23;;;;;;;12.80;11.45;;;10.20;99.90;;;;;;5074736;28;20025;-58
2023/05/03 05:24:49;;;;;;;12.77;11.45;;;10.30;99.90;;;;;;5074981;28;20029;-58
2023/05/03 05:27:14;;;;;;;12.88;11.50;;;10.40;99.90;;;;;;5074946;28;20673;-57
2023/05/03 05:29:40;;;;;;;14.55;12.23;;;10.30;99.90;;;;;;5074729;28;20105;-58
2023/05/03 05:32:06;;;;;;;17.02;12.80;;;10.30;99.90;;;;;;5074533;28;20074;-58
2023/05/03 05:34:31;;;;;;;13.88;11.63;;;10.40;99.90;;;;;;5074502;28;20025;-56
2023/05/03 05:36:57;;;;;;;13.57;10.90;;;10.40;99.90;;;;;;5074469;28;20028;-55
2023/05/03 05:39:23;;;;;;;14.63;11.88;;;10.60;99.90;;;;;;5074411;28;20475;-58
2023/05/03 05:41:48;;;;;;;14.77;11.82;;;10.60;99.90;;;;;;5074516;28;20061;-56
2023/05/03 05:44:14;;;;;;;15.73;11.23;;;10.70;99.90;;;;;;5074712;28;20029;-58
2023/05/03 05:46:40;;;;;;;12.88;11.57;;;10.80;99.90;;;;;;5074502;28;20480;-55
2023/05/03 05:49:06;;;;;;;19.48;12.52;;;10.70;97.40;;;;;;5073134;28;20020;-56
2023/05/03 05:51:31;;;;;;;22.23;14.45;;;10.80;99.20;;;;;;5075252;28;20023;-56
2023/05/03 05:53:57;;;;;;;18.38;13.25;;;10.80;98.90;;;;;;5074549;28;20048;-58
2023/05/03 05:56:23;;;;;;;19.10;14.40;;;10.80;98.40;;;;;;5074602;28;20021;-57
2023/05/03 05:58:48;;;;;;;22.88;16.65;;;10.90;99.50;;;;;;5074234;28;20017;-56
2023/05/03 06:01:14;;;;;;;20.35;17.55;;;11.00;98.90;;;;;;5074137;28;20017;-56
2023/05/03 06:03:40;;;;;;;24.20;19.60;;;11.00;95.70;;;;;;5073814;28;20046;-55
2023/05/03 06:06:06;;;;;;;34.75;25.55;;;10.90;93.70;;;;;;5074260;28;20028;-59
2023/05/03 06:08:31;;;;;;;30.88;24.73;;;11.00;95.20;;;;;;5073363;28;20451;-58
2023/05/03 06:10:57;;;;;;;26.48;20.98;;;11.00;96.50;;;;;;5074043;28;20020;-58
2023/05/03 06:13:23;;;;;;;23.70;19.10;;;11.10;96.00;;;;;;5074109;28;20020;-57
2023/05/03 06:15:49;;;;;;;25.27;18.17;;;11.10;94.00;;;;;;5073504;28;20074;-55
2023/05/03 06:18:15;;;;;;;19.92;15.80;;;11.10;93.80;;;;;;5074035;28;20013;-58
2023/05/03 06:20:41;;;;;;;18.70;16.70;;;11.20;92.50;;;;;;5073849;28;20026;-58
2023/05/03 06:23:06;;;;;;;21.42;17.08;;;11.20;92.80;;;;;;5073885;28;20387;-57
2023/05/03 06:25:34;;;;;;;22.63;18.60;;;11.40;90.80;;;;;;5073205;28;20082;-58
2023/05/03 06:28:00;;;;;;;21.45;17.48;;;11.40;91.60;;;;;;5073158;28;20058;-58
2023/05/03 06:30:27;;;;;;;24.00;17.55;;;11.50;91.90;;;;;;5072542;28;20024;-57
2023/05/03 06:32:53;;;;;;;23.58;16.67;;;11.60;87.20;;;;;;5072703;28;20016;-57
2023/05/03 06:35:20;;;;;;;22.13;16.83;;;11.60;85.90;;;;;;5073294;28;20119;-57
2023/05/03 06:37:46;;;;;;;23.80;16.83;;;11.60;82.60;;;;;;5073326;28;20019;-58
2023/05/03 06:40:12;;;;;;;22.50;17.42;;;11.70;83.80;;;;;;5072253;28;20017;-56
2023/05/03 06:42:37;;;;;;;24.75;16.35;;;11.80;84.80;;;;;;5073106;28;20471;-57
2023/05/03 06:45:04;;;;;;;20.52;17.17;;;11.90;76.00;;;;;;5073357;28;20380;-57
2023/05/03 06:47:29;;;;;;;17.88;15.95;;;11.90;71.50;;;;;;5071822;28;20024;-58
2023/05/03 06:49:55;;;;;;;23.27;15.63;;;12.00;70.20;;;;;;5071775;28;20524;-57
2023/05/03 06:52:20;;;;;;;17.95;16.05;;;12.10;61.50;;;;;;5073118;28;20124;-56
2023/05/03 06:54:46;;;;;;;21.58;17.00;;;12.00;70.30;;;;;;5072981;28;20111;-56
2023/05/03 06:57:12;;;;;;;36.95;16.65;;;12.00;69.30;;;;;;5073374;28;20099;-56
2023/05/03 06:59:37;;;;;;;16.10;14.27;;;12.10;76.90;;;;;;5072948;28;20021;-58
2023/05/03 07:02:03;;;;;;;25.30;19.13;;;12.00;64.30;;;;;;5072983;28;20037;-57
2023/05/03 07:04:29;;;;;;;20.13;15.30;;;11.90;66.50;;;;;;5072985;28;20496;-57
2023/05/03 07:06:54;;;;;;;18.08;15.82;;;11.90;60.40;;;;;;5073043;28;20032;-57
2023/05/03 07:09:20;;;;;;;20.02;16.20;;;12.00;62.50;;;;;;5072848;28;20562;-58
2023/05/03 07:11:49;;;;;;;21.15;15.40;;;12.10;69.20;;;;;;5072419;28;20029;-57
2023/05/03 07:14:15;;;;;;;21.55;15.02;;;12.20;67.90;;;;;;5072311;28;20032;-58
2023/05/03 07:16:41;;;;;;;19.95;14.73;;;12.10;55.00;;;;;;5072328;28;20689;-55
2023/05/03 07:19:07;;;;;;;17.85;14.50;;;12.10;59.10;;;;;;5071716;28;20054;-55
2023/05/03 07:21:33;;;;;;;19.45;14.70;;;12.10;57.20;;;;;;5072144;28;20021;-56
2023/05/03 07:23:59;;;;;;;19.52;15.15;;;12.10;58.60;;;;;;5072156;28;20028;-58
2023/05/03 07:26:26;;;;;;;16.23;13.90;;;12.10;55.80;;;;;;5072518;28;20027;-56
2023/05/03 07:28:52;;;;;;;18.55;14.75;;;12.20;48.80;;;;;;5072089;28;20020;-55
2023/05/03 07:31:19;;;;;;;20.83;16.27;;;12.10;42.50;;;;;;5072208;28;20033;-57
2023/05/03 07:33:45;;;;;;;19.90;14.88;;;12.00;38.90;;;;;;5072133;28;20029;-56
2023/05/03 07:36:11;;;;;;;17.25;15.20;;;12.00;46.70;;;;;;5072523;28;20479;-55
2023/05/03 07:38:36;;;;;;;19.55;14.38;;;11.80;52.60;;;;;;5072232;28;20029;-57
2023/05/03 07:41:02;;;;;;;20.15;15.13;;;11.90;52.40;;;;;;5071530;28;20482;-57
2023/05/03 07:43:29;;;;;;;19.58;16.10;;;11.80;58.80;;;;;;5071798;28;20063;-57
2023/05/03 07:45:54;;;;;;;23.50;16.90;;;11.70;60.80;;;;;;5071862;28;20024;-57
2023/05/03 07:48:20;;;;;;;25.15;18.45;;;11.70;70.80;;;;;;5072019;28;20036;-56
2023/05/03 07:50:46;;;;;;;21.17;18.60;;;11.60;64.50;;;;;;5072082;28;20032;-57
2023/05/03 07:53:12;;;;;;;22.55;18.58;;;11.50;73.40;;;;;;5072006;28;20514;-55
2023/05/03 07:55:38;;;;;;;21.02;18.55;;;11.60;70.30;;;;;;5071656;28;20031;-53
2023/05/03 07:58:04;;;;;;;23.30;18.55;;;11.60;82.90;;;;;;5071716;28;20032;-57
2023/05/03 08:00:30;;;;;;;26.98;17.92;;;11.60;79.70;;;;;;5070499;28;20012;-57
2023/05/03 08:02:56;;;;;;;23.10;18.50;;;11.70;75.50;;;;;;5071469;28;20045;-54
2023/05/03 08:05:22;;;;;;;19.70;16.38;;;11.80;76.50;;;;;;5071825;28;20511;-56
2023/05/03 08:07:48;;;;;;;24.77;18.58;;;11.80;77.30;;;;;;5071693;28;20021;-57
2023/05/03 08:10:14;;;;;;;21.98;17.38;;;11.90;78.00;;;;;;5071267;28;20020;-59
2023/05/03 08:12:40;;;;;;;22.05;18.13;;;12.00;80.90;;;;;;5071263;28;20026;-59
2023/05/03 08:15:06;;;;;;;21.33;17.90;;;12.10;78.30;;;;;;5071479;28;20384;-57
2023/05/03 08:17:42;;;;;;;18.27;15.70;;;12.10;69.30;;;;;;5071114;28;20074;-58
2023/05/03 08:20:10;;;;;;;20.00;15.90;;;12.10;70.60;;;;;;5071404;28;20107;-58
2023/05/03 08:22:36;;;;;;;18.65;16.02;;;12.20;65.20;;;;;;5071199;28;20036;-58
2023/05/03 08:25:03;;;;;;;42.50;31.52;;;12.30;62.90;;;;;;5071597;28;20047;-57
2023/05/03 08:27:30;;;;;;;19.85;17.75;;;12.30;57.30;;;;;;5071410;28;20129;-58
2023/05/03 08:29:55;;;;;;;21.00;16.40;;;12.30;52.00;;;;;;5071068;28;20490;-58
2023/05/03 08:32:21;;;;;;;22.15;18.20;;;12.30;48.50;;;;;;5070588;28;20086;-58
2023/05/03 08:34:48;;;;;;;19.80;15.52;;;12.40;37.20;;;;;;5071486;28;20098;-58
2023/05/03 08:37:14;;;;;;;20.45;17.23;;;12.50;50.30;;;;;;5071450;28;20028;-57
2023/05/03 08:39:39;;;;;;;22.52;18.58;;;12.60;33.30;;;;;;5071310;28;20114;-57
2023/05/03 08:42:07;;;;;;;20.88;17.70;;;12.50;39.90;;;;;;5071242;28;20020;-58
2023/05/03 08:44:36;;;;;;;19.65;15.73;;;12.50;32.10;;;;;;5069940;28;20502;-57
2023/05/03 08:47:04;;;;;;;20.20;15.30;;;12.60;28.60;;;;;;5071565;28;20020;-57
2023/05/03 08:49:33;;;;;;;21.40;15.43;;;12.60;33.40;;;;;;5071374;28;20404;-57
2023/05/03 08:52:01;;;;;;;16.58;14.50;;;12.70;18.70;;;;;;5071316;28;20539;-57
2023/05/03 08:54:26;;;;;;;19.60;15.07;;;12.70;42.00;;;;;;5070462;28;20028;-57
2023/05/03 08:56:52;;;;;;;19.08;16.13;;;12.70;44.70;;;;;;5070709;28;20078;-55
2023/05/03 08:59:18;;;;;;;17.48;15.07;;;12.70;47.50;;;;;;5070918;28;20016;-54
2023/05/03 09:01:44;;;;;;;18.77;14.45;;;12.80;33.70;;;;;;5071083;28;20068;-57
2023/05/03 09:04:10;;;;;;;17.58;14.45;;;12.80;34.40;;;;;;5071099;28;20020;-58
2023/05/03 09:06:36;;;;;;;19.40;15.38;;;12.90;22.90;;;;;;5071188;28;20119;-58
2023/05/03 09:09:06;;;;;;;19.58;15.32;;;13.00;30.10;;;;;;5071321;28;20448;-59
2023/05/03 09:11:33;;;;;;;22.73;15.93;;;13.10;18.20;;;;;;5071081;28;20020;-58
2023/05/03 09:14:09;;;;;;;23.17;14.45;;;13.50;17.30;;;;;;5070712;28;20098;-58
2023/05/03 09:16:34;;;;;;;21.38;15.25;;;13.90;1.00;;;;;;5071352;28;20025;-58
2023/05/03 09:19:03;;;;;;;16.42;14.63;;;13.90;1.00;;;;;;5070927;28;20025;-59
2023/05/03 09:21:32;;;;;;;16.55;14.45;;;14.10;1.00;;;;;;5071139;28;20016;-58
2023/05/03 09:23:58;;;;;;;18.80;14.70;;;14.20;1.00;;;;;;5069739;28;20464;-57
2023/05/03 09:26:31;;;;;;;18.63;15.50;;;14.30;1.00;;;;;;5070261;28;20075;-58
2023/05/03 09:29:01;;;;;;;;;;;14.20;1.00;;;;;;5070389;28;20062;-58
2023/05/03 09:31:28;;;;;;;17.75;14.48;;;14.40;1.00;;;;;;5070378;28;19904;-58
2023/05/03 09:33:55;;;;;;;15.15;13.52;;;14.40;1.00;;;;;;5070682;28;20066;-56
2023/05/03 09:36:21;;;;;;;17.38;14.02;;;14.40;1.00;;;;;;5068833;28;20112;-58
2023/05/03 09:38:47;;;;;;;22.50;17.40;;;14.30;1.00;;;;;;5070829;28;20070;-58
2023/05/03 09:41:14;;;;;;;18.75;16.23;;;14.50;1.00;;;;;;5070818;28;20044;-58
2023/05/03 09:43:51;;;;;;;15.55;13.95;;;14.60;1.00;;;;;;5072839;28;20038;-58
2023/05/03 09:46:17;;;;;;;22.80;14.93;;;14.70;1.00;;;;;;5074295;28;20036;-58
2023/05/03 09:48:44;;;;;;;18.73;15.38;;;14.40;1.00;;;;;;5042330;28;20094;-58
2023/05/03 09:51:11;;;;;;;20.85;15.73;;;14.60;1.00;;;;;;5043408;28;20033;-59
2023/05/03 09:53:46;;;;;;;24.77;15.52;;;15.10;1.00;;;;;;5042878;28;20033;-58
2023/05/03 09:56:12;;;;;;;19.08;15.25;;;15.50;99.90;;;;;;5041633;28;20480;-59
2023/05/03 09:58:39;;;;;;;17.90;14.15;;;15.50;99.90;;;;;;5043687;28;20172;-58
2023/05/03 10:01:04;;;;;;;20.48;14.82;;;16.00;99.90;;;;;;5045576;28;20371;-58
2023/05/03 10:03:42;;;;;;;17.73;15.60;;;16.30;99.90;;;;;;5048557;28;20049;-58
2023/05/03 10:09:43;;;;;;;17.17;15.20;;;16.00;99.90;;;;;;5043315;28;20718;-59
2023/05/03 10:12:11;;;;;;;17.83;15.10;;;15.70;99.90;;;;;;5043803;28;20098;-59
2023/05/03 10:14:40;;;;;;;18.88;15.68;;;15.90;99.90;;;;;;5044205;28;20025;-58
2023/05/03 10:17:30;;;;;;;22.60;15.77;;;16.30;1.00;;;;;;5043996;28;20029;-58
2023/05/03 10:20:08;;;;;;;20.20;16.58;;;16.10;99.90;;;;;;5044933;28;20025;-58
2023/05/03 10:23:03;;;;;;;18.55;16.42;;;16.10;96.10;;;;;;5043521;28;20480;-58
2023/05/03 10:25:29;;;;;;;22.75;17.23;;;16.60;1.00;;;;;;5043076;28;20048;-58
2023/05/03 10:28:02;;;;;;;20.70;17.02;;;16.50;99.90;;;;;;5043290;28;20025;-57
2023/05/03 10:30:35;;;;;;;25.58;18.80;;;16.50;1.00;;;;;;5042904;28;20380;-59
2023/05/03 10:33:13;;;;;;;20.38;17.50;;;16.60;1.00;;;;;;5042370;28;20043;-59
2023/05/03 10:35:49;;;;;;;22.13;18.23;;;16.40;99.90;;;;;;5042792;28;20033;-59
2023/05/03 10:38:19;;;;;;;21.50;18.15;;;17.20;1.00;;;;;;5043188;28;20155;-59
2023/05/03 10:40:45;;;;;;;28.20;19.02;;;17.40;1.00;;;;;;5042909;28;20104;-58
2023/05/03 10:43:31;;;;;;;26.02;21.10;;;17.30;99.90;;;;;;5042844;28;20163;-57
2023/05/03 10:46:00;;;;;;;25.48;20.20;;;17.40;64.60;;;;;;5043097;28;20032;-59
2023/05/03 10:48:27;;;;;;;26.52;18.98;;;17.00;1.00;;;;;;5042335;28;20025;-59
2023/05/03 10:50:54;;;;;;;26.77;21.40;;;16.90;99.90;;;;;;5047243;28;20033;-58
2023/05/03 10:53:35;;;;;;;29.23;24.50;;;16.60;1.00;;;;;;5053043;28;20112;-59
2023/05/03 10:56:06;;;;;;;30.52;23.90;;;16.00;99.90;;;;;;5052030;28;20028;-58
2023/05/03 10:58:36;;;;;;;34.92;24.13;;;15.90;1.00;;;;;;5053241;28;20049;-59
2023/05/03 11:01:07;;;;;;;25.05;21.15;;;16.10;99.90;;;;;;5052267;28;20530;-59
2023/05/03 11:04:05;;;;;;;26.20;21.10;;;16.00;1.00;;;;;;5052944;28;20127;-58
2023/05/03 11:06:55;;;;;;;29.15;21.48;;;16.10;99.90;;;;;;5049806;28;20116;-58
2023/05/03 11:09:30;;;;;;;28.92;22.10;;;16.60;1.00;;;;;;5053375;28;20063;-58
2023/05/03 11:11:56;;;;;;;28.08;20.55;;;16.90;99.90;;;;;;5053087;28;20048;-59
2023/05/03 11:14:22;;;;;;;25.17;21.63;;;17.40;99.90;;;;;;5052824;28;20075;-59
2023/05/03 11:16:49;;;;;;;26.33;20.10;;;18.10;1.00;;;;;;5052812;28;20052;-59
2023/05/03 11:19:15;;;;;;;24.05;19.85;;;18.40;97.90;;;;;;5051601;28;20395;-59
2023/05/03 11:21:42;;;;;;;24.90;20.88;;;18.40;1.00;;;;;;5052574;28;20025;-59
2023/05/03 11:24:08;;;;;;;22.58;18.88;;;18.60;99.90;;;;;;5052694;28;20371;-59
2023/05/03 11:26:37;;;;;;;24.27;19.38;;;18.70;25.80;;;;;;5052642;28;20116;-59
2023/05/03 11:29:04;;;;;;;25.08;18.33;;;19.00;94.20;;;;;;5052841;28;20036;-60
2023/05/03 11:31:30;;;;;;;25.83;20.35;;;18.70;1.00;;;;;;5052712;28;20013;-59
2023/05/03 11:33:56;;;;;;;27.15;19.80;;;19.00;1.00;;;;;;5052536;28;20384;-59
2023/05/03 11:36:22;;;;;;;22.25;19.95;;;19.00;99.90;;;;;;5052713;28;20058;-59
2023/05/03 11:38:48;;;;;;;20.65;17.70;;;19.40;99.90;;;;;;5052598;28;20049;-58
2023/05/03 11:41:17;;;;;;;24.02;18.10;;;19.90;1.00;;;;;;5052645;28;20029;-59
2023/05/03 11:43:48;;;;;;;23.20;16.67;;;20.00;1.00;;;;;;5052258;28;20021;-59
2023/05/03 11:46:21;;;;;;;17.63;15.68;;;21.00;99.90;;;;;;5052518;28;20087;-59
2023/05/03 11:49:05;;;;;;;24.40;16.35;;;21.50;99.90;;;;;;5052385;28;20021;-59
2023/05/03 11:51:31;;;;;;;20.33;15.65;;;21.90;99.90;;;;;;5052231;28;20063;-59
2023/05/03 11:54:00;;;;;;;20.77;15.13;;;21.30;99.90;;;;;;5052130;28;20416;-59
2023/05/03 11:56:26;;;;;;;21.30;15.80;;;20.90;99.90;;;;;;5052070;28;20055;-59
2023/05/03 11:58:57;;;;;;;17.55;15.02;;;21.40;99.90;;;;;;5052134;28;20013;-58
2023/05/03 12:01:29;;;;;;;19.05;14.48;;;21.80;55.10;;;;;;5051869;28;20535;-59
2023/05/03 12:04:00;;;;;;;19.77;11.88;;;22.50;99.90;;;;;;5051951;28;20037;-59
2023/05/03 12:06:27;;;;;;;18.15;13.23;;;23.60;1.00;;;;;;5051468;28;20025;-59
2023/05/03 12:08:53;;;;;;;17.90;13.00;;;24.00;99.90;;;;;;5051943;28;20040;-60
2023/05/03 12:11:20;;;;;;;17.17;12.32;;;24.00;99.90;;;;;;5051057;28;20462;-60
2023/05/03 12:13:58;;;;;;;17.75;11.70;;;23.50;99.90;;;;;;5051621;28;20071;-59
2023/05/03 12:16:24;;;;;;;14.57;11.80;;;22.30;99.90;;;;;;5051504;28;20029;-59
2023/05/03 12:18:55;;;;;;;13.18;10.38;;;22.20;99.90;;;;;;5051866;28;20025;-60
2023/05/03 12:21:23;;;;;;;15.88;10.52;;;23.40;99.90;;;;;;5049933;28;20110;-59
2023/05/03 12:23:50;;;;;;;11.77;10.23;;;23.40;99.90;;;;;;5051712;28;20076;-59
2023/05/03 12:26:17;;;;;;;20.42;9.93;;;23.50;99.90;;;;;;5051871;28;20104;-59
2023/05/03 12:28:43;;;;;;;16.02;10.73;;;23.50;99.90;;;;;;5051504;28;20047;-59
2023/05/03 12:31:09;;;;;;;11.00;9.90;;;24.20;99.90;;;;;;5051820;28;20051;-59
2023/05/03 12:33:35;;;;;;;15.90;10.35;;;24.30;99.90;;;;;;5051346;28;20029;-59
2023/05/03 12:36:01;;;;;;;12.65;10.57;;;25.00;99.90;;;;;;5051689;28;20551;-60
2023/05/03 12:38:27;;;;;;;14.90;10.55;;;24.70;99.90;;;;;;5051520;28;20103;-60